Aegean Tiffany — SVAE9 — position and weather

sailwx.info

Track history (hours):
 
Tides and Currents Weather Stations Pressure Air Temp Water Temp Dewpoint Dewpoint Depression Visibility Wind Speed Wind Dir Waves Ship Positions

Aegean Tiffany

Last reported at 2018-Apr-24 10:30 UTC. Time now 2018-Apr-24 10:52 UTC.
Position N 38°02' E 023°31'.

Length 80 m; draft 5.6 m.

Type: Tanker. MMSI: 240870000.

Date/timePositionNaut miles runAvg speedWind from/ knotsBaromVisibWave heightAir tempDewpointWater temp
2018-Apr-24 10:30N 38°02' E 023°31'0 0.0
2018-Apr-24 10:00N 38°02' E 023°31'0 0.0
2018-Apr-24 09:30N 38°02' E 023°31'0 0.0
2018-Apr-24 09:00N 38°02' E 023°31'1 2.0
2018-Apr-24 08:31N 38°02' E 023°32'0 0.0
2018-Apr-24 08:00N 38°02' E 023°32'0 0.0
2018-Apr-24 07:30N 38°02' E 023°32'0 0.0
2018-Apr-24 07:01N 38°02' E 023°32'0 0.0
2018-Apr-24 06:30N 38°02' E 023°32'0 0.0
2018-Apr-24 06:00N 38°02' E 023°32'0 0.0
2018-Apr-24 05:30N 38°02' E 023°32'0 0.0
2018-Apr-23 17:46N 38°02' E 023°32'0 0.0
2018-Apr-23 17:30N 38°02' E 023°32'0 0.0
2018-Apr-23 17:00N 38°02' E 023°32'0 0.0
2018-Apr-23 16:30N 38°02' E 023°32'0 0.0
2018-Apr-23 16:00N 38°02' E 023°32'0 0.0
2018-Apr-23 07:05N 38°02' E 023°32'0 0.1
2018-Apr-23 07:00N 38°02' E 023°32'0 0.0
2018-Apr-23 06:30N 38°02' E 023°32'0 0.0
2018-Apr-23 06:00N 38°02' E 023°32'0 0.0
2018-Apr-23 05:30N 38°02' E 023°32'0 0.0
2018-Apr-23 05:00N 38°02' E 023°32'0 0.0
2018-Apr-23 04:30N 38°02' E 023°32'0 0.0
2018-Apr-22 16:38N 38°02' E 023°32'0 0.0
2018-Apr-22 16:30N 38°02' E 023°32'0 0.0
2018-Apr-22 16:00N 38°02' E 023°32'0 0.0
2018-Apr-22 15:30N 38°02' E 023°32'0 0.0
2018-Apr-22 15:00N 38°02' E 023°32'0 0.0
2018-Apr-22 14:30N 38°02' E 023°32'0 0.0
2018-Apr-22 14:00N 38°02' E 023°32'0 0.0
2018-Apr-22 13:30N 38°02' E 023°32'0 0.0
2018-Apr-22 13:00N 38°02' E 023°32'0 0.0
2018-Apr-22 12:30N 38°02' E 023°32'0 0.0
2018-Apr-22 12:00N 38°02' E 023°32'0 0.0
2018-Apr-22 11:30N 38°02' E 023°32'0 0.0
2018-Apr-22 11:00N 38°02' E 023°32'0 0.0
2018-Apr-22 10:30N 38°02' E 023°32'0 0.0
2018-Apr-22 10:00N 38°02' E 023°32'0 0.0
2018-Apr-22 09:30N 38°02' E 023°32'0 0.0
2018-Apr-22 09:00N 38°02' E 023°32'0 0.0
2018-Apr-22 08:30N 38°02' E 023°32'0 0.0
2018-Apr-22 08:00N 38°02' E 023°32'0 0.0
2018-Apr-22 07:30N 38°02' E 023°32'0 0.0
2018-Apr-22 07:00N 38°02' E 023°32'0 0.0
2018-Apr-22 06:30N 38°02' E 023°32'0 0.0
2018-Apr-22 06:00N 38°02' E 023°32'0 0.0
2018-Apr-22 05:30N 38°02' E 023°32'0 0.0
2018-Apr-22 01:00N 38°02' E 023°32'0 0.0
2018-Apr-22 00:31N 38°02' E 023°32'0 0.1
2018-Apr-22 00:00N 38°02' E 023°32'3 5.1
2018-Apr-21 23:30N 38°01' E 023°29'4 8.1
2018-Apr-21 23:00N 37°59' E 023°25'3 5.2
2018-Apr-21 22:30N 37°57' E 023°23'4 8.3
2018-Apr-21 22:00N 37°56' E 023°18'4 8.4
2018-Apr-21 21:30N 37°54' E 023°13'4 8.3
2018-Apr-21 21:00N 37°53' E 023°07'4 8.1
2018-Apr-21 20:30N 37°54' E 023°02'4 6.4
2018-Apr-21 19:51N 37°57' E 022°58'1 3.8
2018-Apr-21 19:30N 37°58' E 022°57'2 4.4
2018-Apr-21 19:00N 37°59' E 022°55'1 1.3
2018-Apr-21 18:30N 37°59' E 022°54'3 6.0
2018-Apr-21 18:00N 38°01' E 022°51'4 7.9
2018-Apr-21 17:27N 38°03' E 022°46'5 7.8
2018-Apr-21 16:49N 38°06' E 022°41'  
2018-Apr-17 00:31N 38°00' E 022°50'1 7.2
2018-Apr-17 00:20N 37°60' E 022°51'3 7.2
2018-Apr-16 23:59N 37°58' E 022°54'3 6.7
2018-Apr-16 23:29N 37°57' E 022°58'3 4.9
2018-Apr-16 22:57N 37°55' E 023°00'2 4.9
2018-Apr-16 22:30N 37°54' E 023°03'4 7.2
2018-Apr-16 22:00N 37°54' E 023°07'4 7.4
2018-Apr-16 21:30N 37°55' E 023°12'4 7.5
2018-Apr-16 21:00N 37°55' E 023°17'4 7.7
2018-Apr-16 20:30N 37°56' E 023°21'4 7.6
2018-Apr-16 20:00N 37°58' E 023°26'3 5.3
2018-Apr-16 19:31N 38°00' E 023°27'4 7.6
2018-Apr-16 19:00N 38°02' E 023°31'1 1.4
2018-Apr-16 18:30N 38°02' E 023°32'0 0.0
2018-Apr-16 10:43N 38°02' E 023°32'0 0.0
2018-Apr-16 10:30N 38°02' E 023°32'0 0.0
2018-Apr-16 10:00N 38°02' E 023°32'0 0.0
2018-Apr-16 09:30N 38°02' E 023°32'0 0.0
2018-Apr-16 09:00N 38°02' E 023°32'0 0.0
2018-Apr-16 08:30N 38°02' E 023°32'0 0.0
2018-Apr-16 08:00N 38°02' E 023°32'0 0.0
2018-Apr-16 07:30N 38°02' E 023°32'0 0.0
2018-Apr-16 07:00N 38°02' E 023°32'0 0.0
2018-Apr-16 06:30N 38°02' E 023°32'0 0.0
2018-Apr-16 06:00N 38°02' E 023°32'0 0.0
2018-Apr-16 05:30N 38°02' E 023°32'0 0.0
2018-Apr-16 05:00N 38°02' E 023°32'0 0.0
2018-Apr-16 04:30N 38°02' E 023°32'0 0.0
2018-Apr-15 18:13N 38°02' E 023°32'0 0.0
2018-Apr-15 18:00N 38°02' E 023°32'0 0.0
2018-Apr-15 17:30N 38°02' E 023°32'0 0.0
2018-Apr-15 17:00N 38°02' E 023°32'0 0.0
2018-Apr-15 16:30N 38°02' E 023°32'0 0.0
2018-Apr-15 16:00N 38°02' E 023°32'0 0.0
2018-Apr-15 15:30N 38°02' E 023°32'0 0.0
2018-Apr-15 15:00N 38°02' E 023°32'0 0.0
2018-Apr-15 14:30N 38°02' E 023°32'0 0.0
2018-Apr-15 14:00N 38°02' E 023°32'0 0.0
2018-Apr-15 13:30N 38°02' E 023°32'0 0.0
2018-Apr-15 13:00N 38°02' E 023°32'0 0.0
2018-Apr-15 12:30N 38°02' E 023°32'0 0.0
2018-Apr-15 12:00N 38°02' E 023°32'0 0.0
2018-Apr-15 11:30N 38°02' E 023°32'0 0.0
2018-Apr-15 11:00N 38°02' E 023°32'0 0.0
2018-Apr-15 10:31N 38°02' E 023°32'0 0.0
2018-Apr-15 10:00N 38°02' E 023°32'0 0.0
2018-Apr-15 09:30N 38°02' E 023°32'0 0.0
2018-Apr-15 09:00N 38°02' E 023°32'0 0.0
2018-Apr-15 08:30N 38°02' E 023°32'0 0.0
2018-Apr-15 08:00N 38°02' E 023°32'0 0.0
2018-Apr-15 07:30N 38°02' E 023°32'0 0.0
2018-Apr-15 07:00N 38°02' E 023°32'1 2.1
2018-Apr-15 06:30N 38°02' E 023°31'0 0.1
2018-Apr-15 06:00N 38°02' E 023°31'0 0.0
2018-Apr-15 05:30N 38°02' E 023°31'0 0.0
2018-Apr-15 05:00N 38°02' E 023°31'0 0.0
2018-Apr-15 04:30N 38°02' E 023°31'0 0.0
2018-Apr-15 04:00N 38°02' E 023°31'0 0.0
2018-Apr-15 03:30N 38°02' E 023°31'0 0.0
2018-Apr-15 03:00N 38°02' E 023°31'0 0.0
2018-Apr-15 02:30N 38°02' E 023°31'0 0.0
2018-Apr-15 02:00N 38°02' E 023°31'0 0.0
2018-Apr-15 01:30N 38°02' E 023°31'0 0.0
2018-Apr-15 01:00N 38°02' E 023°31'0 0.0
2018-Apr-15 00:30N 38°02' E 023°31'0 0.0
2018-Apr-15 00:00N 38°02' E 023°31'0 0.0
2018-Apr-14 23:30N 38°02' E 023°31'0 0.2
2018-Apr-14 23:00N 38°02' E 023°31'3 6.4
2018-Apr-14 22:30N 38°02' E 023°35'1 1.4
2018-Apr-14 22:00N 38°02' E 023°36'0 0.0
2018-Apr-14 21:30N 38°02' E 023°36'0 0.0
2018-Apr-14 21:00N 38°02' E 023°36'0 0.0
2018-Apr-14 20:30N 38°02' E 023°36'0 0.0
2018-Apr-14 20:00N 38°02' E 023°36'0 0.0
2018-Apr-14 19:30N 38°02' E 023°36'0 0.0
2018-Apr-14 19:00N 38°02' E 023°36'0 0.0
2018-Apr-14 18:30N 38°02' E 023°36'0 0.0
2018-Apr-14 18:00N 38°02' E 023°36'0 0.0
2018-Apr-14 17:30N 38°02' E 023°36'0 0.0
2018-Apr-14 17:00N 38°02' E 023°36'0 0.0
2018-Apr-14 16:30N 38°02' E 023°36'0 0.0
2018-Apr-14 16:00N 38°02' E 023°36'0 0.0
2018-Apr-14 15:30N 38°02' E 023°36'0 0.2
2018-Apr-14 15:00N 38°02' E 023°36'0 0.8
2018-Apr-14 14:30N 38°01' E 023°35'1 2.3
2018-Apr-14 14:00N 38°01' E 023°34'3 6.9
2018-Apr-14 13:30N 37°57' E 023°34'2 4.5
2018-Apr-14 12:58N 37°57' E 023°37'  
Track history (hours):
 
Tides and Currents Weather Stations Pressure Air Temp Water Temp Dewpoint Dewpoint Depression Visibility Wind Speed Wind Dir Waves Ship Positions

Aegean Tiffany

Last reported at 2018-Apr-24 10:30 UTC. Time now 2018-Apr-24 10:52 UTC.
Position N 38°02' E 023°31'.

Length 80 m; draft 5.6 m.

Type: Tanker. MMSI: 240870000.

Date/timePositionNaut miles runAvg speedWind from/ knotsBaromVisibWave heightAir tempDewpointWater temp
2018-Apr-24 10:30N 38°02' E 023°31'0 0.0
2018-Apr-24 10:00N 38°02' E 023°31'0 0.0
2018-Apr-24 09:30N 38°02' E 023°31'0 0.0
2018-Apr-24 09:00N 38°02' E 023°31'1 2.0
2018-Apr-24 08:31N 38°02' E 023°32'0 0.0
2018-Apr-24 08:00N 38°02' E 023°32'0 0.0
2018-Apr-24 07:30N 38°02' E 023°32'0 0.0
2018-Apr-24 07:01N 38°02' E 023°32'0 0.0
2018-Apr-24 06:30N 38°02' E 023°32'0 0.0
2018-Apr-24 06:00N 38°02' E 023°32'0 0.0
2018-Apr-24 05:30N 38°02' E 023°32'0 0.0
2018-Apr-23 17:46N 38°02' E 023°32'0 0.0
2018-Apr-23 17:30N 38°02' E 023°32'0 0.0
2018-Apr-23 17:00N 38°02' E 023°32'0 0.0
2018-Apr-23 16:30N 38°02' E 023°32'0 0.0
2018-Apr-23 16:00N 38°02' E 023°32'0 0.0
2018-Apr-23 07:05N 38°02' E 023°32'0 0.1
2018-Apr-23 07:00N 38°02' E 023°32'0 0.0
2018-Apr-23 06:30N 38°02' E 023°32'0 0.0
2018-Apr-23 06:00N 38°02' E 023°32'0 0.0
2018-Apr-23 05:30N 38°02' E 023°32'0 0.0
2018-Apr-23 05:00N 38°02' E 023°32'0 0.0
2018-Apr-23 04:30N 38°02' E 023°32'0 0.0
2018-Apr-22 16:38N 38°02' E 023°32'0 0.0
2018-Apr-22 16:30N 38°02' E 023°32'0 0.0
2018-Apr-22 16:00N 38°02' E 023°32'0 0.0
2018-Apr-22 15:30N 38°02' E 023°32'0 0.0
2018-Apr-22 15:00N 38°02' E 023°32'0 0.0
2018-Apr-22 14:30N 38°02' E 023°32'0 0.0
2018-Apr-22 14:00N 38°02' E 023°32'0 0.0
2018-Apr-22 13:30N 38°02' E 023°32'0 0.0
2018-Apr-22 13:00N 38°02' E 023°32'0 0.0
2018-Apr-22 12:30N 38°02' E 023°32'0 0.0
2018-Apr-22 12:00N 38°02' E 023°32'0 0.0
2018-Apr-22 11:30N 38°02' E 023°32'0 0.0
2018-Apr-22 11:00N 38°02' E 023°32'0 0.0
2018-Apr-22 10:30N 38°02' E 023°32'0 0.0
2018-Apr-22 10:00N 38°02' E 023°32'0 0.0
2018-Apr-22 09:30N 38°02' E 023°32'0 0.0
2018-Apr-22 09:00N 38°02' E 023°32'0 0.0
2018-Apr-22 08:30N 38°02' E 023°32'0 0.0
2018-Apr-22 08:00N 38°02' E 023°32'0 0.0
2018-Apr-22 07:30N 38°02' E 023°32'0 0.0
2018-Apr-22 07:00N 38°02' E 023°32'0 0.0
2018-Apr-22 06:30N 38°02' E 023°32'0 0.0
2018-Apr-22 06:00N 38°02' E 023°32'0 0.0
2018-Apr-22 05:30N 38°02' E 023°32'0 0.0
2018-Apr-22 01:00N 38°02' E 023°32'0 0.0
2018-Apr-22 00:31N 38°02' E 023°32'0 0.1
2018-Apr-22 00:00N 38°02' E 023°32'3 5.1
2018-Apr-21 23:30N 38°01' E 023°29'4 8.1
2018-Apr-21 23:00N 37°59' E 023°25'3 5.2
2018-Apr-21 22:30N 37°57' E 023°23'4 8.3
2018-Apr-21 22:00N 37°56' E 023°18'4 8.4
2018-Apr-21 21:30N 37°54' E 023°13'4 8.3
2018-Apr-21 21:00N 37°53' E 023°07'4 8.1
2018-Apr-21 20:30N 37°54' E 023°02'4 6.4
2018-Apr-21 19:51N 37°57' E 022°58'1 3.8
2018-Apr-21 19:30N 37°58' E 022°57'2 4.4
2018-Apr-21 19:00N 37°59' E 022°55'1 1.3
2018-Apr-21 18:30N 37°59' E 022°54'3 6.0
2018-Apr-21 18:00N 38°01' E 022°51'4 7.9
2018-Apr-21 17:27N 38°03' E 022°46'5 7.8
2018-Apr-21 16:49N 38°06' E 022°41'  
2018-Apr-17 00:31N 38°00' E 022°50'1 7.2
2018-Apr-17 00:20N 37°60' E 022°51'3 7.2
2018-Apr-16 23:59N 37°58' E 022°54'3 6.7
2018-Apr-16 23:29N 37°57' E 022°58'3 4.9
2018-Apr-16 22:57N 37°55' E 023°00'2 4.9
2018-Apr-16 22:30N 37°54' E 023°03'4 7.2
2018-Apr-16 22:00N 37°54' E 023°07'4 7.4
2018-Apr-16 21:30N 37°55' E 023°12'4 7.5
2018-Apr-16 21:00N 37°55' E 023°17'4 7.7
2018-Apr-16 20:30N 37°56' E 023°21'4 7.6
2018-Apr-16 20:00N 37°58' E 023°26'3 5.3
2018-Apr-16 19:31N 38°00' E 023°27'4 7.6
2018-Apr-16 19:00N 38°02' E 023°31'1 1.4
2018-Apr-16 18:30N 38°02' E 023°32'0 0.0
2018-Apr-16 10:43N 38°02' E 023°32'0 0.0
2018-Apr-16 10:30N 38°02' E 023°32'0 0.0
2018-Apr-16 10:00N 38°02' E 023°32'0 0.0
2018-Apr-16 09:30N 38°02' E 023°32'0 0.0
2018-Apr-16 09:00N 38°02' E 023°32'0 0.0
2018-Apr-16 08:30N 38°02' E 023°32'0 0.0
2018-Apr-16 08:00N 38°02' E 023°32'0 0.0
2018-Apr-16 07:30N 38°02' E 023°32'0 0.0
2018-Apr-16 07:00N 38°02' E 023°32'0 0.0
2018-Apr-16 06:30N 38°02' E 023°32'0 0.0
2018-Apr-16 06:00N 38°02' E 023°32'0 0.0
2018-Apr-16 05:30N 38°02' E 023°32'0 0.0
2018-Apr-16 05:00N 38°02' E 023°32'0 0.0
2018-Apr-16 04:30N 38°02' E 023°32'0 0.0
2018-Apr-15 18:13N 38°02' E 023°32'0 0.0
2018-Apr-15 18:00N 38°02' E 023°32'0 0.0
2018-Apr-15 17:30N 38°02' E 023°32'0 0.0
2018-Apr-15 17:00N 38°02' E 023°32'0 0.0
2018-Apr-15 16:30N 38°02' E 023°32'0 0.0
2018-Apr-15 16:00N 38°02' E 023°32'0 0.0
2018-Apr-15 15:30N 38°02' E 023°32'0 0.0
2018-Apr-15 15:00N 38°02' E 023°32'0 0.0
2018-Apr-15 14:30N 38°02' E 023°32'0 0.0
2018-Apr-15 14:00N 38°02' E 023°32'0 0.0
2018-Apr-15 13:30N 38°02' E 023°32'0 0.0
2018-Apr-15 13:00N 38°02' E 023°32'0 0.0
2018-Apr-15 12:30N 38°02' E 023°32'0 0.0
2018-Apr-15 12:00N 38°02' E 023°32'0 0.0
2018-Apr-15 11:30N 38°02' E 023°32'0 0.0
2018-Apr-15 11:00N 38°02' E 023°32'0 0.0
2018-Apr-15 10:31N 38°02' E 023°32'0 0.0
2018-Apr-15 10:00N 38°02' E 023°32'0 0.0
2018-Apr-15 09:30N 38°02' E 023°32'0 0.0
2018-Apr-15 09:00N 38°02' E 023°32'0 0.0
2018-Apr-15 08:30N 38°02' E 023°32'0 0.0
2018-Apr-15 08:00N 38°02' E 023°32'0 0.0
2018-Apr-15 07:30N 38°02' E 023°32'0 0.0
2018-Apr-15 07:00N 38°02' E 023°32'1 2.1
2018-Apr-15 06:30N 38°02' E 023°31'0 0.1
2018-Apr-15 06:00N 38°02' E 023°31'0 0.0
2018-Apr-15 05:30N 38°02' E 023°31'0 0.0
2018-Apr-15 05:00N 38°02' E 023°31'0 0.0
2018-Apr-15 04:30N 38°02' E 023°31'0 0.0
2018-Apr-15 04:00N 38°02' E 023°31'0 0.0
2018-Apr-15 03:30N 38°02' E 023°31'0 0.0
2018-Apr-15 03:00N 38°02' E 023°31'0 0.0
2018-Apr-15 02:30N 38°02' E 023°31'0 0.0
2018-Apr-15 02:00N 38°02' E 023°31'0 0.0
2018-Apr-15 01:30N 38°02' E 023°31'0 0.0
2018-Apr-15 01:00N 38°02' E 023°31'0 0.0
2018-Apr-15 00:30N 38°02' E 023°31'0 0.0
2018-Apr-15 00:00N 38°02' E 023°31'0 0.0
2018-Apr-14 23:30N 38°02' E 023°31'0 0.2
2018-Apr-14 23:00N 38°02' E 023°31'3 6.4
2018-Apr-14 22:30N 38°02' E 023°35'1 1.4
2018-Apr-14 22:00N 38°02' E 023°36'0 0.0
2018-Apr-14 21:30N 38°02' E 023°36'0 0.0
2018-Apr-14 21:00N 38°02' E 023°36'0 0.0
2018-Apr-14 20:30N 38°02' E 023°36'0 0.0
2018-Apr-14 20:00N 38°02' E 023°36'0 0.0
2018-Apr-14 19:30N 38°02' E 023°36'0 0.0
2018-Apr-14 19:00N 38°02' E 023°36'0 0.0
2018-Apr-14 18:30N 38°02' E 023°36'0 0.0
2018-Apr-14 18:00N 38°02' E 023°36'0 0.0
2018-Apr-14 17:30N 38°02' E 023°36'0 0.0
2018-Apr-14 17:00N 38°02' E 023°36'0 0.0
2018-Apr-14 16:30N 38°02' E 023°36'0 0.0
2018-Apr-14 16:00N 38°02' E 023°36'0 0.0
2018-Apr-14 15:30N 38°02' E 023°36'0 0.2
2018-Apr-14 15:00N 38°02' E 023°36'0 0.8
2018-Apr-14 14:30N 38°01' E 023°35'1 2.3
2018-Apr-14 14:00N 38°01' E 023°34'3 6.9
2018-Apr-14 13:30N 37°57' E 023°34'2 4.5
2018-Apr-14 12:58N 37°57' E 023°37'  

Dump ship's entire track history